Time;durP1;ratioP1;P1;durP2;ratioP2;P2;SDS_P1;SDS_P2;PMS_P1;PMS_P2;Temp;Humidity;BMP_temperature;BMP_pressure;BME280_temperature;BME280_humidity;BME280_pressure;Samples;Min_cycle;Max_cycle;Signal;HPM_P1;HPM_P2
2021/01/12 00:00:23;;;;;;;26.15;14.18;;;2.80;99.90;;;;;;4986324;28;20046;-60
2021/01/12 00:02:52;;;;;;;27.33;14.15;;;2.80;99.90;;;;;;4981965;28;20523;-64
2021/01/12 00:05:18;;;;;;;22.92;12.43;;;2.80;99.90;;;;;;4985237;28;20035;-58
2021/01/12 00:07:44;;;;;;;23.13;13.75;;;2.80;99.90;;;;;;4985395;28;20392;-59
2021/01/12 00:10:10;;;;;;;30.38;14.45;;;2.90;99.90;;;;;;5000487;28;20026;-60
2021/01/12 00:12:35;;;;;;;22.88;13.13;;;2.90;99.90;;;;;;4990506;28;20030;-62
2021/01/12 00:15:06;;;;;;;27.77;13.43;;;2.80;99.90;;;;;;4987089;28;20033;-60
2021/01/12 00:17:32;;;;;;;25.20;14.13;;;2.90;99.90;;;;;;5000376;28;20172;-62
2021/01/12 00:19:57;;;;;;;24.60;14.60;;;2.90;99.90;;;;;;4982278;28;21330;-61
2021/01/12 00:22:23;;;;;;;23.00;13.98;;;2.90;99.90;;;;;;4992132;28;20042;-59
2021/01/12 00:24:49;;;;;;;27.95;14.15;;;2.90;99.90;;;;;;4992801;28;20050;-58
2021/01/12 00:27:21;;;;;;;25.60;14.38;;;2.90;99.90;;;;;;4991785;28;20058;-59
2021/01/12 00:29:46;;;;;;;25.15;14.43;;;2.90;99.90;;;;;;4987509;28;20034;-58
2021/01/12 00:32:24;;;;;;;27.92;15.05;;;2.90;99.90;;;;;;4992323;28;20033;-63
2021/01/12 00:34:51;;;;;;;26.52;15.38;;;2.90;99.90;;;;;;4991042;28;20121;-60
2021/01/12 00:37:18;;;;;;;32.17;15.02;;;2.90;99.90;;;;;;4990476;28;20045;-60
2021/01/12 00:39:44;;;;;;;25.15;14.48;;;2.80;99.90;;;;;;4991219;28;20026;-64
2021/01/12 00:42:10;;;;;;;21.52;13.57;;;2.90;99.90;;;;;;4990472;28;20030;-60
2021/01/12 00:44:35;;;;;;;24.52;13.80;;;2.90;99.90;;;;;;4989463;28;20043;-57
2021/01/12 00:47:01;;;;;;;25.58;14.52;;;2.90;99.90;;;;;;4990181;28;20113;-61
2021/01/12 00:49:27;;;;;;;23.40;13.48;;;2.90;99.90;;;;;;4990735;28;20054;-58
2021/01/12 00:51:53;;;;;;;27.60;14.38;;;2.90;99.90;;;;;;4992419;28;20108;-58
2021/01/12 00:54:22;;;;;;;26.60;14.38;;;3.00;99.90;;;;;;4988273;28;20025;-63
2021/01/12 00:56:48;;;;;;;25.88;14.45;;;3.00;99.90;;;;;;4989346;28;20057;-59
2021/01/12 00:59:14;;;;;;;26.75;13.32;;;3.00;99.90;;;;;;4993553;28;20030;-61
2021/01/12 01:01:40;;;;;;;25.15;12.57;;;3.00;99.90;;;;;;4988899;28;20132;-59
2021/01/12 01:04:07;;;;;;;26.80;13.10;;;3.00;99.90;;;;;;4985104;28;20038;-60
2021/01/12 01:06:32;;;;;;;22.77;13.57;;;3.00;99.90;;;;;;4997385;28;20488;-59
2021/01/12 01:08:58;;;;;;;21.10;13.02;;;3.00;99.90;;;;;;4991234;28;20022;-61
2021/01/12 01:11:24;;;;;;;21.45;13.07;;;3.00;99.90;;;;;;4991768;28;20361;-57
2021/01/12 01:13:50;;;;;;;23.95;12.85;;;3.00;99.90;;;;;;4991490;28;20528;-62
2021/01/12 01:16:15;;;;;;;20.80;11.95;;;3.00;99.90;;;;;;4989667;28;20098;-61
2021/01/12 01:18:41;;;;;;;23.02;12.57;;;3.00;99.90;;;;;;4990391;28;20415;-61
2021/01/12 01:21:13;;;;;;;21.73;12.15;;;3.10;99.90;;;;;;4989384;28;20050;-56
2021/01/12 01:23:41;;;;;;;24.00;12.82;;;3.10;99.90;;;;;;4988663;28;20077;-58
2021/01/12 01:26:07;;;;;;;21.92;12.25;;;3.10;99.90;;;;;;4986118;28;20642;-55
2021/01/12 01:28:33;;;;;;;19.42;11.60;;;3.10;99.90;;;;;;4988884;28;20065;-59
2021/01/12 01:30:58;;;;;;;20.10;11.60;;;3.10;99.90;;;;;;4984889;28;20038;-59
2021/01/12 01:33:24;;;;;;;19.88;11.70;;;3.20;99.90;;;;;;4984153;28;20018;-59
2021/01/12 01:35:50;;;;;;;21.88;11.52;;;3.20;99.90;;;;;;4990479;28;20026;-61
2021/01/12 01:38:16;;;;;;;20.50;11.82;;;3.20;99.90;;;;;;4992284;28;20046;-59
2021/01/12 01:40:41;;;;;;;18.58;11.23;;;3.20;99.90;;;;;;4992290;28;20026;-56
2021/01/12 01:43:07;;;;;;;21.17;11.55;;;3.20;99.90;;;;;;4992231;28;20027;-55
2021/01/12 01:45:33;;;;;;;17.55;10.85;;;3.20;99.90;;;;;;4990891;28;20080;-56
2021/01/12 01:48:02;;;;;;;17.40;10.65;;;3.30;99.90;;;;;;4992299;28;20026;-58
2021/01/12 01:50:28;;;;;;;17.40;10.93;;;3.30;99.90;;;;;;4991216;28;20018;-58
2021/01/12 01:52:55;;;;;;;18.02;10.50;;;3.30;99.90;;;;;;4990250;28;20433;-56
2021/01/12 01:55:22;;;;;;;20.23;10.95;;;3.30;99.90;;;;;;4991593;28;20555;-59
2021/01/12 01:57:47;;;;;;;17.10;10.00;;;3.30;99.90;;;;;;4991274;28;20026;-58
2021/01/12 02:00:16;;;;;;;17.42;10.98;;;3.30;99.90;;;;;;4992223;28;20034;-60
2021/01/12 02:03:13;;;;;;;17.08;10.98;;;3.30;99.90;;;;;;4984971;28;20053;-61
2021/01/12 02:06:04;;;;;;;17.65;9.90;;;3.30;99.90;;;;;;4981033;28;20555;-58
2021/01/12 02:08:44;;;;;;;17.75;9.20;;;3.40;99.90;;;;;;4986038;28;20030;-58
2021/01/12 02:11:14;;;;;;;14.35;8.95;;;3.40;99.90;;;;;;4984707;28;20034;-61
2021/01/12 02:13:42;;;;;;;15.88;9.43;;;3.40;99.90;;;;;;4989320;28;20042;-59
2021/01/12 02:16:09;;;;;;;15.00;8.90;;;3.40;99.90;;;;;;4987283;28;20030;-56
2021/01/12 02:18:34;;;;;;;13.55;7.72;;;3.50;99.90;;;;;;4986856;28;20026;-61
2021/01/12 02:21:03;;;;;;;13.27;8.50;;;3.50;99.90;;;;;;4990348;28;20049;-59
2021/01/12 02:23:46;;;;;;;13.95;8.05;;;3.50;99.90;;;;;;4990758;28;20503;-60
2021/01/12 02:26:12;;;;;;;13.60;7.55;;;3.60;99.90;;;;;;4984183;28;20100;-58
2021/01/12 02:28:38;;;;;;;12.43;7.57;;;3.60;99.90;;;;;;4991395;28;20030;-59
2021/01/12 02:31:03;;;;;;;17.70;9.85;;;3.60;99.90;;;;;;4987407;28;20030;-60
2021/01/12 02:33:29;;;;;;;12.18;7.60;;;3.60;99.90;;;;;;4991509;28;20030;-58
2021/01/12 02:35:56;;;;;;;10.23;6.47;;;3.60;99.90;;;;;;4990221;28;20041;-58
2021/01/12 02:38:22;;;;;;;10.07;5.70;;;3.60;99.90;;;;;;4991300;28;20033;-60
2021/01/12 02:40:48;;;;;;;10.20;6.45;;;3.70;99.90;;;;;;4991332;28;20484;-60
2021/01/12 02:43:14;;;;;;;11.50;5.75;;;3.70;99.90;;;;;;4987471;28;20040;-60
2021/01/12 02:45:39;;;;;;;9.95;6.10;;;3.70;99.90;;;;;;4991399;28;20113;-59
2021/01/12 02:48:06;;;;;;;6.63;4.97;;;3.70;99.90;;;;;;4989719;28;20033;-59
2021/01/12 02:50:31;;;;;;;7.82;4.68;;;3.80;99.90;;;;;;4994052;28;20034;-58
2021/01/12 02:52:57;;;;;;;7.28;5.07;;;3.80;99.90;;;;;;4990197;28;20472;-58
2021/01/12 02:55:22;;;;;;;6.97;4.40;;;3.70;99.90;;;;;;4986984;28;20393;-59
2021/01/12 02:57:48;;;;;;;5.32;3.67;;;3.80;99.90;;;;;;4991288;28;20085;-57
2021/01/12 03:00:15;;;;;;;5.85;4.20;;;3.80;99.90;;;;;;5008988;28;20039;-59
2021/01/12 03:02:41;;;;;;;11.85;4.10;;;3.80;99.90;;;;;;4991087;28;20030;-59
2021/01/12 03:05:08;;;;;;;5.80;3.50;;;3.80;99.90;;;;;;4989069;28;20432;-60
2021/01/12 03:07:33;;;;;;;5.47;3.97;;;3.80;99.90;;;;;;4991350;28;20052;-62
2021/01/12 03:10:00;;;;;;;4.43;2.97;;;3.80;99.90;;;;;;4981916;28;20508;-59
2021/01/12 03:12:26;;;;;;;4.70;3.00;;;3.80;99.90;;;;;;4991215;28;20388;-60
2021/01/12 03:14:52;;;;;;;4.57;2.78;;;3.80;99.90;;;;;;4991097;28;20045;-60
2021/01/12 03:17:19;;;;;;;4.15;3.13;;;3.90;99.90;;;;;;4990699;28;20041;-60
2021/01/12 03:19:45;;;;;;;3.88;2.65;;;3.90;99.90;;;;;;5005242;28;20054;-60
2021/01/12 03:22:11;;;;;;;3.08;2.13;;;3.90;99.90;;;;;;4984748;28;20038;-60
2021/01/12 03:24:37;;;;;;;3.50;2.00;;;3.90;99.90;;;;;;4990714;28;20049;-61
2021/01/12 03:27:04;;;;;;;4.55;1.90;;;4.00;99.90;;;;;;4986522;28;20464;-59
2021/01/12 03:29:29;;;;;;;2.90;1.77;;;4.00;99.90;;;;;;4987814;28;20045;-58
2021/01/12 03:31:55;;;;;;;2.50;1.55;;;4.00;99.90;;;;;;4990768;28;20477;-61
2021/01/12 03:34:20;;;;;;;1.90;1.45;;;4.00;99.90;;;;;;4990691;28;20113;-59
2021/01/12 03:36:46;;;;;;;1.65;1.10;;;4.00;99.90;;;;;;4990028;28;20034;-57
2021/01/12 03:39:12;;;;;;;2.00;1.30;;;4.00;99.90;;;;;;4990708;28;20104;-58
2021/01/12 03:41:38;;;;;;;1.13;0.90;;;4.00;99.90;;;;;;4987049;28;20042;-61
2021/01/12 03:44:03;;;;;;;1.35;1.10;;;4.00;99.90;;;;;;4987246;28;20113;-61
2021/01/12 03:46:29;;;;;;;1.10;0.98;;;4.00;99.90;;;;;;4988301;28;20042;-62
2021/01/12 03:48:55;;;;;;;0.65;0.60;;;4.00;99.90;;;;;;4985007;28;20369;-59
2021/01/12 03:51:23;;;;;;;1.38;0.93;;;4.00;99.90;;;;;;4991934;28;20044;-58
2021/01/12 03:53:48;;;;;;;0.70;0.65;;;4.10;99.90;;;;;;4994163;28;20034;-59
2021/01/12 03:56:14;;;;;;;3.22;0.90;;;4.10;99.90;;;;;;4990816;28;20026;-59
2021/01/12 03:58:40;;;;;;;1.25;0.77;;;4.10;99.90;;;;;;4993391;28;20097;-59
2021/01/12 04:01:06;;;;;;;0.38;0.38;;;4.10;99.90;;;;;;4992996;28;20062;-58
2021/01/12 04:03:32;;;;;;;0.55;0.55;;;4.10;99.90;;;;;;4994099;28;20117;-57
2021/01/12 04:06:01;;;;;;;0.90;0.68;;;4.10;99.90;;;;;;4993745;28;20113;-58
2021/01/12 04:08:27;;;;;;;0.82;0.52;;;4.10;99.90;;;;;;4992448;28;20022;-59
2021/01/12 04:10:52;;;;;;;0.57;0.50;;;4.10;99.90;;;;;;5005815;28;20030;-57
2021/01/12 04:13:18;;;;;;;0.50;0.50;;;4.10;99.90;;;;;;4993644;28;20080;-57
2021/01/12 04:15:43;;;;;;;0.38;0.35;;;4.10;99.90;;;;;;4993817;28;20034;-60
2021/01/12 04:18:09;;;;;;;0.45;0.45;;;4.10;99.90;;;;;;4993301;28;20057;-57
2021/01/12 04:20:35;;;;;;;1.25;0.60;;;4.10;99.90;;;;;;4994328;28;20041;-59
2021/01/12 04:23:00;;;;;;;0.85;0.55;;;4.10;99.90;;;;;;4993569;28;20034;-60
2021/01/12 04:25:26;;;;;;;0.45;0.40;;;4.10;99.90;;;;;;4993457;28;20026;-60
2021/01/12 04:27:51;;;;;;;1.55;0.63;;;4.00;99.90;;;;;;4992816;28;20054;-57
2021/01/12 04:30:17;;;;;;;0.57;0.55;;;4.10;99.90;;;;;;4992465;28;20069;-57
2021/01/12 04:32:43;;;;;;;0.77;0.60;;;4.00;99.90;;;;;;4992170;28;20080;-60
2021/01/12 04:35:08;;;;;;;0.90;0.52;;;4.10;99.90;;;;;;4991285;28;20023;-60
2021/01/12 04:37:34;;;;;;;2.25;0.40;;;4.10;99.90;;;;;;4991050;28;20030;-60
2021/01/12 04:40:00;;;;;;;0.65;0.65;;;4.10;99.90;;;;;;4992540;28;20049;-59
2021/01/12 04:42:31;;;;;;;1.38;0.73;;;4.10;99.90;;;;;;4993341;28;20109;-59
2021/01/12 04:45:01;;;;;;;0.30;0.30;;;4.00;99.90;;;;;;4995996;28;20381;-61
2021/01/12 04:47:27;;;;;;;0.60;0.45;;;4.00;99.90;;;;;;4993191;28;20022;-60
2021/01/12 04:49:53;;;;;;;0.40;0.30;;;4.00;99.90;;;;;;4993059;28;20037;-61
2021/01/12 04:52:19;;;;;;;0.70;0.50;;;4.00;99.90;;;;;;4991038;28;20121;-60
2021/01/12 04:54:45;;;;;;;0.60;0.40;;;4.00;99.90;;;;;;4989577;28;20125;-59
2021/01/12 04:57:13;;;;;;;3.35;0.70;;;4.00;99.90;;;;;;4991714;28;20026;-61
2021/01/12 04:59:39;;;;;;;1.02;0.82;;;4.00;99.90;;;;;;4992218;28;20053;-62
2021/01/12 05:02:05;;;;;;;0.95;0.50;;;4.00;99.90;;;;;;4993076;28;20468;-62
2021/01/12 05:04:33;;;;;;;0.30;0.30;;;4.10;99.90;;;;;;4992691;28;20504;-61
2021/01/12 05:07:00;;;;;;;0.70;0.60;;;4.00;99.90;;;;;;4991254;28;20034;-61
2021/01/12 05:09:27;;;;;;;0.40;0.40;;;4.00;99.90;;;;;;4991809;28;20030;-58
2021/01/12 05:11:53;;;;;;;1.30;0.60;;;4.00;99.90;;;;;;4992937;28;20125;-62
2021/01/12 05:14:23;;;;;;;2.17;0.40;;;4.00;99.90;;;;;;4992683;28;20025;-60
2021/01/12 05:16:54;;;;;;;2.00;0.40;;;4.00;99.90;;;;;;4992062;28;20033;-60
2021/01/12 05:19:28;;;;;;;0.30;0.25;;;4.00;99.90;;;;;;4990056;28;20030;-61
2021/01/12 05:21:57;;;;;;;;;;;4.00;99.90;;;;;;4992536;28;20069;-62
2021/01/12 05:24:23;;;;;;;0.40;0.40;;;4.00;99.90;;;;;;4992301;28;19984;-59
2021/01/12 05:26:48;;;;;;;1.13;0.60;;;4.00;99.90;;;;;;4990389;28;20065;-60
2021/01/12 05:29:15;;;;;;;4.30;0.38;;;4.00;99.90;;;;;;4992440;28;20034;-59
2021/01/12 05:31:47;;;;;;;0.60;0.47;;;4.00;99.90;;;;;;4996707;28;20029;-58
2021/01/12 05:34:16;;;;;;;0.40;0.40;;;4.00;99.90;;;;;;4992605;28;20026;-57
2021/01/12 05:36:53;;;;;;;0.55;0.50;;;3.90;99.90;;;;;;4990239;28;20076;-61
2021/01/12 05:39:21;;;;;;;1.05;0.70;;;3.90;99.90;;;;;;4990289;28;20031;-61
2021/01/12 05:41:48;;;;;;;0.98;0.50;;;3.90;99.90;;;;;;4991819;28;20651;-62
2021/01/12 05:44:19;;;;;;;0.70;0.38;;;3.90;99.90;;;;;;5007033;28;20480;-58
2021/01/12 05:46:52;;;;;;;0.60;0.30;;;3.90;99.90;;;;;;4987781;28;20029;-59
2021/01/12 05:49:21;;;;;;;1.27;0.25;;;3.90;99.90;;;;;;4991761;28;20015;-57
2021/01/12 05:51:51;;;;;;;0.50;0.32;;;3.90;99.90;;;;;;4990129;28;20133;-59
2021/01/12 05:54:27;;;;;;;0.20;0.20;;;3.90;99.90;;;;;;4992041;28;20023;-59
2021/01/12 05:57:16;;;;;;;0.75;0.40;;;3.90;99.90;;;;;;4990275;28;20049;-61
2021/01/12 05:59:50;;;;;;;0.60;0.55;;;3.90;99.90;;;;;;4990666;28;20118;-61
2021/01/12 06:02:20;;;;;;;0.77;0.50;;;3.90;99.90;;;;;;4986910;28;20171;-60
2021/01/12 06:04:47;;;;;;;0.57;0.45;;;3.90;99.90;;;;;;4991401;28;20109;-60
2021/01/12 06:07:15;;;;;;;0.65;0.60;;;4.00;99.90;;;;;;4987050;28;20472;-60
2021/01/12 06:09:42;;;;;;;0.47;0.40;;;4.00;99.90;;;;;;4990980;28;20057;-61
2021/01/12 06:12:09;;;;;;;0.43;0.32;;;4.00;99.90;;;;;;4985150;28;20025;-60
2021/01/12 06:14:38;;;;;;;0.77;0.50;;;4.00;99.90;;;;;;4991215;28;20492;-62
2021/01/12 06:17:09;;;;;;;2.20;0.52;;;4.00;99.90;;;;;;4984523;28;20022;-62
2021/01/12 06:19:43;;;;;;;0.95;0.50;;;4.00;99.90;;;;;;4990791;28;20022;-61
2021/01/12 06:22:12;;;;;;;;;;;4.00;99.90;;;;;;4984816;28;20109;-62
2021/01/12 06:24:37;;;;;;;1.85;0.70;;;4.00;99.90;;;;;;4989571;28;19944;-62
2021/01/12 06:27:07;;;;;;;2.08;0.65;;;4.00;99.90;;;;;;4987483;28;20477;-58
2021/01/12 06:29:34;;;;;;;0.82;0.50;;;4.00;99.90;;;;;;4987903;28;20054;-61
2021/01/12 06:32:00;;;;;;;1.92;0.63;;;4.00;99.90;;;;;;4983412;28;20084;-61
2021/01/12 06:34:26;;;;;;;0.82;0.47;;;4.00;99.90;;;;;;4991333;28;20476;-60
2021/01/12 06:36:56;;;;;;;0.60;0.50;;;4.00;99.90;;;;;;4986917;28;20113;-59
2021/01/12 06:39:39;;;;;;;1.00;0.68;;;4.00;99.90;;;;;;4990729;28;20054;-60
2021/01/12 06:42:06;;;;;;;0.57;0.40;;;4.00;99.90;;;;;;4987494;28;20495;-61
2021/01/12 06:44:34;;;;;;;1.13;0.40;;;4.00;99.90;;;;;;4991260;28;20031;-58
2021/01/12 06:47:00;;;;;;;0.45;0.40;;;4.00;99.90;;;;;;4991544;28;20027;-62
2021/01/12 06:49:28;;;;;;;1.70;0.50;;;4.00;99.90;;;;;;4991016;28;20508;-60
2021/01/12 06:52:01;;;;;;;1.50;0.73;;;4.00;99.90;;;;;;4986788;28;20042;-62
2021/01/12 06:54:39;;;;;;;7.90;2.53;;;4.00;99.90;;;;;;4990938;28;20023;-56
2021/01/12 06:57:16;;;;;;;258.52;79.85;;;4.00;99.90;;;;;;4989683;28;20057;-56
2021/01/12 06:59:45;;;;;;;109.82;35.10;;;4.00;99.90;;;;;;4990761;28;20023;-61
2021/01/12 07:02:28;;;;;;;328.00;118.60;;;4.00;99.90;;;;;;4997091;28;20392;-60
2021/01/12 07:04:54;;;;;;;116.35;42.97;;;4.00;99.90;;;;;;4989816;28;20034;-57
2021/01/12 07:07:23;;;;;;;34.95;14.65;;;4.00;99.90;;;;;;4987287;28;20023;-61
2021/01/12 07:09:48;;;;;;;39.78;20.00;;;4.00;99.90;;;;;;4990870;28;20026;-60
2021/01/12 07:12:20;;;;;;;40.08;18.75;;;4.00;99.90;;;;;;4983327;28;20026;-59
2021/01/12 07:14:47;;;;;;;14.25;8.15;;;4.00;99.90;;;;;;4991226;28;20369;-59
2021/01/12 07:17:13;;;;;;;4.80;2.67;;;4.00;99.90;;;;;;4990828;28;20030;-60
2021/01/12 07:19:39;;;;;;;1.40;1.20;;;4.00;99.90;;;;;;4990926;28;20114;-61
2021/01/12 07:22:11;;;;;;;13.05;7.60;;;4.00;99.90;;;;;;4990013;28;20053;-59
2021/01/12 07:24:38;;;;;;;3.30;1.98;;;4.00;99.90;;;;;;4994275;28;20037;-59
2021/01/12 07:27:06;;;;;;;1.23;0.95;;;4.00;99.90;;;;;;4994496;28;20411;-61
2021/01/12 07:29:31;;;;;;;5.32;2.45;;;4.00;99.90;;;;;;4994481;28;20018;-62
2021/01/12 07:32:04;;;;;;;3.97;2.17;;;4.00;99.90;;;;;;4991621;28;20049;-59
2021/01/12 07:34:35;;;;;;;4.80;2.20;;;4.00;99.90;;;;;;4989857;28;20030;-56
2021/01/12 07:37:06;;;;;;;3.28;1.35;;;4.00;99.90;;;;;;4994349;28;20105;-57
2021/01/12 07:39:35;;;;;;;9.63;5.35;;;4.00;99.90;;;;;;4994334;28;20499;-59
2021/01/12 07:42:01;;;;;;;7.35;4.55;;;4.00;99.90;;;;;;4994188;28;20500;-57
2021/01/12 07:44:27;;;;;;;11.32;6.05;;;4.00;99.90;;;;;;4990290;28;20058;-61
2021/01/12 07:46:58;;;;;;;8.57;2.50;;;4.00;99.90;;;;;;4985889;28;20054;-58
2021/01/12 07:49:26;;;;;;;4.35;2.55;;;4.10;99.90;;;;;;4988286;28;20318;-58
2021/01/12 07:51:51;;;;;;;7.15;2.35;;;4.00;99.90;;;;;;4989015;28;20164;-55
2021/01/12 07:54:24;;;;;;;1.95;1.17;;;4.10;99.90;;;;;;4994089;28;20057;-60
2021/01/12 07:56:54;;;;;;;2.13;1.40;;;4.10;99.90;;;;;;4994123;28;20026;-57
2021/01/12 07:59:21;;;;;;;5.35;3.22;;;4.10;99.90;;;;;;4988060;28;20026;-58
2021/01/12 08:01:47;;;;;;;3.83;2.67;;;4.10;99.90;;;;;;4984554;28;20544;-60
2021/01/12 08:04:13;;;;;;;2.20;1.23;;;4.10;99.90;;;;;;4994028;28;20056;-61
2021/01/12 08:06:43;;;;;;;1.13;0.68;;;4.20;99.90;;;;;;4992487;28;20511;-60
2021/01/12 08:09:09;;;;;;;5.38;1.67;;;4.20;99.90;;;;;;4990461;28;20046;-58
2021/01/12 08:11:37;;;;;;;1.40;0.90;;;4.20;99.90;;;;;;4994226;28;20061;-62
2021/01/12 08:14:04;;;;;;;2.80;1.83;;;4.20;99.90;;;;;;4993283;28;20027;-60
2021/01/12 08:16:30;;;;;;;2.25;1.58;;;4.20;99.90;;;;;;4992634;28;20121;-62
2021/01/12 08:18:56;;;;;;;1.95;1.33;;;4.20;99.90;;;;;;4988354;28;20105;-62
2021/01/12 08:21:22;;;;;;;9.27;3.88;;;4.20;99.90;;;;;;4993596;28;20110;-60
2021/01/12 08:23:47;;;;;;;3.80;1.83;;;4.20;99.90;;;;;;4992410;28;20496;-59
2021/01/12 08:26:13;;;;;;;6.53;2.75;;;4.20;99.90;;;;;;4993717;28;20034;-62
2021/01/12 08:28:38;;;;;;;5.47;2.30;;;4.20;99.90;;;;;;4991200;28;20089;-61
2021/01/12 08:31:04;;;;;;;8.65;4.00;;;4.20;99.90;;;;;;4933346;28;20366;-59
2021/01/12 08:33:38;;;;;;;2.15;1.05;;;4.20;99.90;;;;;;4990763;28;20029;-59
2021/01/12 08:36:13;;;;;;;;;;;4.30;99.90;;;;;;4992109;28;20597;-62
2021/01/12 08:38:43;;;;;;;1.58;0.68;;;4.20;99.90;;;;;;4993065;28;19949;-60
2021/01/12 08:41:10;;;;;;;1.42;0.98;;;4.20;99.90;;;;;;4992332;28;20106;-61
2021/01/12 08:43:39;;;;;;;1.10;0.52;;;4.20;99.90;;;;;;4991360;28;20022;-60
2021/01/12 08:46:06;;;;;;;7.95;6.03;;;4.30;99.90;;;;;;4992076;28;20034;-59
2021/01/12 08:48:32;;;;;;;4.85;3.50;;;4.30;99.90;;;;;;4975071;28;20037;-60
2021/01/12 08:50:58;;;;;;;2.28;2.08;;;4.30;99.90;;;;;;4996352;28;20130;-62
2021/01/12 08:53:31;;;;;;;1.80;1.70;;;4.30;99.90;;;;;;4989857;28;20054;-60
2021/01/12 08:56:23;;;;;;;3.22;1.92;;;4.30;99.90;;;;;;4992112;28;20428;-63
2021/01/12 08:58:49;;;;;;;4.00;3.50;;;4.30;99.90;;;;;;4990248;28;20448;-61
2021/01/12 09:01:25;;;;;;;7.15;3.50;;;4.30;99.90;;;;;;4993154;28;20038;-63
2021/01/12 09:04:00;;;;;;;16.33;8.23;;;4.40;99.90;;;;;;4993432;28;20496;-62
2021/01/12 09:06:25;;;;;;;10.10;6.93;;;4.30;99.90;;;;;;4992357;28;20027;-60
2021/01/12 09:08:51;;;;;;;18.63;11.13;;;4.40;99.90;;;;;;4991703;28;20085;-63
2021/01/12 09:11:17;;;;;;;36.65;17.23;;;4.30;99.90;;;;;;4992525;28;20065;-61
2021/01/12 09:13:45;;;;;;;3.22;2.28;;;4.40;99.90;;;;;;4991353;28;20077;-60
2021/01/12 09:16:10;;;;;;;4.85;2.90;;;4.40;99.90;;;;;;4989204;28;20049;-59
2021/01/12 09:18:36;;;;;;;2.38;1.60;;;4.40;99.90;;;;;;4991923;28;20465;-61
2021/01/12 09:21:06;;;;;;;5.95;3.13;;;4.40;99.90;;;;;;4991277;28;20109;-61
2021/01/12 09:23:32;;;;;;;6.68;3.90;;;4.50;99.90;;;;;;4992177;28;20034;-62
2021/01/12 09:26:02;;;;;;;8.82;5.03;;;4.40;99.90;;;;;;4991798;28;20034;-57
2021/01/12 09:28:33;;;;;;;9.55;4.88;;;4.40;99.90;;;;;;4988866;28;20126;-61
2021/01/12 09:31:10;;;;;;;10.60;6.25;;;4.50;99.90;;;;;;4970717;28;20054;-62
2021/01/12 09:33:37;;;;;;;3.22;1.63;;;4.50;99.90;;;;;;4992103;28;20361;-61
2021/01/12 09:36:03;;;;;;;7.22;3.30;;;4.50;99.90;;;;;;4987494;28;20117;-59
2021/01/12 09:38:46;;;;;;;8.10;3.85;;;4.50;99.90;;;;;;4985780;28;20114;-62
2021/01/12 09:41:13;;;;;;;11.93;6.10;;;4.50;99.90;;;;;;4986814;28;20380;-60
2021/01/12 09:43:40;;;;;;;9.88;4.15;;;4.50;99.90;;;;;;4991686;28;20022;-63
2021/01/12 09:46:06;;;;;;;8.02;4.75;;;4.50;99.90;;;;;;5009193;28;20048;-62
2021/01/12 09:48:32;;;;;;;3.65;2.22;;;4.50;99.90;;;;;;4995957;28;20388;-59
2021/01/12 09:50:58;;;;;;;6.35;3.92;;;4.50;99.90;;;;;;4988071;28;20026;-60
2021/01/12 09:53:24;;;;;;;17.10;8.43;;;4.50;99.90;;;;;;4987548;28;20038;-61
2021/01/12 09:55:50;;;;;;;4.72;2.78;;;4.60;99.90;;;;;;4989132;28;20460;-62
2021/01/12 09:58:15;;;;;;;3.63;2.22;;;4.60;99.90;;;;;;4989304;28;20026;-63
2021/01/12 10:00:41;;;;;;;12.00;6.03;;;4.60;99.90;;;;;;4987954;28;20118;-60
2021/01/12 10:03:07;;;;;;;4.20;2.92;;;4.70;99.90;;;;;;4991445;28;20026;-59
2021/01/12 10:05:40;;;;;;;7.90;4.95;;;4.70;99.90;;;;;;4988106;28;20030;-60
2021/01/12 10:08:06;;;;;;;6.80;3.63;;;4.80;99.90;;;;;;4982022;28;20172;-60
2021/01/12 10:10:32;;;;;;;9.57;5.63;;;4.80;99.90;;;;;;4984751;28;20027;-59
2021/01/12 10:12:58;;;;;;;4.85;2.90;;;4.80;99.90;;;;;;4991360;28;20022;-61
2021/01/12 10:15:24;;;;;;;3.83;2.25;;;4.90;99.90;;;;;;4990777;28;20130;-62
2021/01/12 10:17:49;;;;;;;5.45;3.00;;;4.90;99.90;;;;;;4993964;28;20030;-57
2021/01/12 10:20:15;;;;;;;3.67;2.60;;;4.90;99.90;;;;;;4990213;28;20030;-63
2021/01/12 10:22:40;;;;;;;4.05;2.30;;;4.90;99.90;;;;;;4990933;28;20023;-60
2021/01/12 10:25:06;;;;;;;6.10;3.60;;;4.90;99.90;;;;;;4989843;28;20038;-60
2021/01/12 10:27:41;;;;;;;5.45;2.92;;;4.90;99.90;;;;;;4989366;28;20106;-60
2021/01/12 10:30:08;;;;;;;9.90;4.82;;;5.00;99.90;;;;;;4982917;28;20081;-61
2021/01/12 10:32:34;;;;;;;3.78;2.10;;;5.00;99.90;;;;;;4970113;28;20117;-60
2021/01/12 10:35:01;;;;;;;7.38;3.63;;;5.00;99.90;;;;;;4989813;28;20805;-62
2021/01/12 10:37:29;;;;;;;7.13;3.20;;;5.00;99.90;;;;;;4990124;28;20518;-60
2021/01/12 10:39:56;;;;;;;6.30;3.50;;;5.10;99.90;;;;;;4989957;28;20030;-63
2021/01/12 10:42:21;;;;;;;14.25;6.63;;;5.10;99.90;;;;;;4990790;28;20085;-60
2021/01/12 10:44:47;;;;;;;10.40;5.82;;;5.10;99.90;;;;;;4990143;28;20026;-61
2021/01/12 10:47:13;;;;;;;8.10;4.88;;;5.10;99.90;;;;;;4989791;28;20030;-59
2021/01/12 10:49:39;;;;;;;10.52;6.85;;;5.20;99.90;;;;;;4990116;28;20049;-61
2021/01/12 10:52:06;;;;;;;9.98;7.15;;;5.30;99.90;;;;;;4990193;28;20130;-59
2021/01/12 10:54:32;;;;;;;13.02;7.40;;;5.40;99.90;;;;;;4990764;28;20102;-58
2021/01/12 10:56:58;;;;;;;9.32;6.53;;;5.40;99.90;;;;;;4989487;28;20068;-57
2021/01/12 10:59:26;;;;;;;11.55;7.15;;;5.50;99.90;;;;;;4993907;28;20050;-59
2021/01/12 11:01:54;;;;;;;7.45;4.57;;;5.50;99.90;;;;;;4994426;28;20026;-61
2021/01/12 11:04:20;;;;;;;21.65;9.88;;;5.50;99.90;;;;;;4993092;28;20108;-57
2021/01/12 11:06:51;;;;;;;25.67;12.75;;;5.60;99.90;;;;;;4993865;28;20035;-62
2021/01/12 11:09:17;;;;;;;11.23;6.43;;;5.60;99.90;;;;;;4994062;28;20027;-60
2021/01/12 11:11:43;;;;;;;7.68;4.20;;;5.70;99.90;;;;;;4994121;28;20030;-60
2021/01/12 11:14:09;;;;;;;4.68;3.45;;;5.80;99.90;;;;;;4994299;28;20138;-61
2021/01/12 11:16:41;;;;;;;2.28;1.95;;;6.00;99.90;;;;;;4994477;28;20026;-60
2021/01/12 11:19:10;;;;;;;5.13;2.47;;;6.20;99.90;;;;;;4990993;28;20026;-57
2021/01/12 11:21:49;;;;;;;3.97;2.67;;;6.30;99.90;;;;;;4990220;28;20076;-63
2021/01/12 11:24:19;;;;;;;5.07;3.17;;;6.50;99.90;;;;;;4994079;28;20040;-60
2021/01/12 11:26:46;;;;;;;4.82;3.30;;;6.50;99.90;;;;;;4994042;28;20026;-61
2021/01/12 11:29:12;;;;;;;5.50;4.13;;;6.60;99.90;;;;;;4991936;28;20022;-61
2021/01/12 11:31:39;;;;;;;4.82;4.10;;;6.60;99.90;;;;;;4994270;28;20038;-62
2021/01/12 11:34:06;;;;;;;8.68;4.13;;;6.70;99.90;;;;;;4970551;28;20046;-61
2021/01/12 11:36:39;;;;;;;6.32;4.78;;;6.70;99.90;;;;;;4992836;28;20113;-61
2021/01/12 11:39:05;;;;;;;5.43;4.45;;;6.70;99.90;;;;;;4986964;28;20129;-60
2021/01/12 11:41:31;;;;;;;6.05;5.07;;;6.80;99.90;;;;;;4993317;28;20061;-63
2021/01/12 11:43:56;;;;;;;8.48;5.13;;;6.90;99.90;;;;;;4992618;28;20034;-60
2021/01/12 11:46:30;;;;;;;9.18;5.47;;;6.90;99.90;;;;;;4993947;28;20018;-61
2021/01/12 11:48:59;;;;;;;7.28;5.43;;;6.90;99.90;;;;;;4993375;28;20073;-60
2021/01/12 11:51:45;;;;;;;12.38;6.80;;;6.90;99.90;;;;;;4993713;28;20027;-63
2021/01/12 11:54:12;;;;;;;7.82;5.28;;;7.00;99.90;;;;;;4993406;28;20049;-60
2021/01/12 11:56:39;;;;;;;7.00;4.75;;;7.00;99.90;;;;;;4993482;28;20455;-61
2021/01/12 11:59:06;;;;;;;9.63;5.65;;;7.00;99.90;;;;;;4992105;28;20038;-56
2021/01/12 12:01:42;;;;;;;7.00;5.47;;;7.00;99.90;;;;;;4987926;28;20030;-61
2021/01/12 12:04:07;;;;;;;7.40;5.32;;;7.00;99.90;;;;;;4990792;28;20423;-59
2021/01/12 12:06:33;;;;;;;6.45;4.10;;;6.90;99.90;;;;;;4992920;28;20022;-58
2021/01/12 12:08:58;;;;;;;6.18;4.63;;;6.90;99.90;;;;;;4993111;28;20049;-60
2021/01/12 12:11:25;;;;;;;4.72;3.85;;;6.90;99.90;;;;;;4993451;28;20022;-59
2021/01/12 12:13:51;;;;;;;4.38;2.92;;;6.90;99.90;;;;;;4987379;28;20042;-63
2021/01/12 12:16:18;;;;;;;2.55;2.17;;;6.80;99.90;;;;;;4991691;28;20026;-59
2021/01/12 12:18:43;;;;;;;2.15;1.65;;;6.60;99.90;;;;;;4991944;28;20037;-62
2021/01/12 12:21:14;;;;;;;2.08;1.65;;;6.60;99.90;;;;;;4989400;28;20392;-59
2021/01/12 12:23:40;;;;;;;2.63;1.48;;;6.50;99.90;;;;;;4988830;28;20037;-59
2021/01/12 12:26:16;;;;;;;3.92;1.30;;;6.60;99.90;;;;;;4990257;28;20483;-61
2021/01/12 12:28:42;;;;;;;3.72;1.58;;;6.60;99.90;;;;;;4985116;28;20647;-57
2021/01/12 12:31:08;;;;;;;2.17;1.70;;;6.60;99.90;;;;;;4990117;28;20033;-64
2021/01/12 12:33:35;;;;;;;1.92;1.42;;;6.60;99.90;;;;;;4973011;28;20042;-62
2021/01/12 12:36:09;;;;;;;5.47;2.08;;;6.60;99.90;;;;;;4986514;28;20440;-60
2021/01/12 12:38:38;;;;;;;6.32;1.80;;;6.70;99.90;;;;;;4991868;28;20070;-60
2021/01/12 12:41:08;;;;;;;2.20;1.70;;;6.70;99.90;;;;;;4992486;28;20125;-60
2021/01/12 12:43:34;;;;;;;4.50;1.92;;;6.70;99.90;;;;;;4988302;28;20026;-60
2021/01/12 12:46:00;;;;;;;2.85;1.45;;;6.70;99.90;;;;;;4992181;28;20037;-60
2021/01/12 12:48:26;;;;;;;5.03;1.90;;;6.70;99.90;;;;;;4991934;28;20031;-62
2021/01/12 12:50:53;;;;;;;2.15;1.17;;;6.70;99.90;;;;;;4986581;28;20035;-62
2021/01/12 12:53:19;;;;;;;3.08;1.67;;;6.60;99.90;;;;;;4986491;28;20033;-60
2021/01/12 12:55:45;;;;;;;2.25;1.60;;;6.50;99.90;;;;;;4991608;28;20058;-60